sensor_id;sensor_type;location;lat;lon;timestamp;P1;durP1;ratioP1;P2;durP2;ratioP2
2023;SDS011;1016;48.770;9.154;2023-08-12T00:00:06;27.83;;;5.30;;
2023;SDS011;1016;48.770;9.154;2023-08-12T00:02:37;27.27;;;4.87;;
2023;SDS011;1016;48.770;9.154;2023-08-12T00:05:06;29.80;;;5.13;;
2023;SDS011;1016;48.770;9.154;2023-08-12T00:07:33;28.87;;;5.47;;
2023;SDS011;1016;48.770;9.154;2023-08-12T00:10:02;28.50;;;5.60;;
2023;SDS011;1016;48.770;9.154;2023-08-12T00:12:30;27.83;;;5.33;;
2023;SDS011;1016;48.770;9.154;2023-08-12T00:14:56;28.43;;;5.60;;
2023;SDS011;1016;48.770;9.154;2023-08-12T00:17:23;28.50;;;5.23;;
2023;SDS011;1016;48.770;9.154;2023-08-12T00:19:48;28.07;;;5.13;;
2023;SDS011;1016;48.770;9.154;2023-08-12T00:22:14;28.87;;;5.07;;
2023;SDS011;1016;48.770;9.154;2023-08-12T00:24:39;27.63;;;5.00;;
2023;SDS011;1016;48.770;9.154;2023-08-12T00:27:05;27.87;;;5.20;;
2023;SDS011;1016;48.770;9.154;2023-08-12T00:29:32;29.00;;;5.40;;
2023;SDS011;1016;48.770;9.154;2023-08-12T00:31:57;28.20;;;5.20;;
2023;SDS011;1016;48.770;9.154;2023-08-12T00:34:23;27.47;;;5.00;;
2023;SDS011;1016;48.770;9.154;2023-08-12T00:36:49;27.70;;;5.33;;
2023;SDS011;1016;48.770;9.154;2023-08-12T00:39:14;27.67;;;5.00;;
2023;SDS011;1016;48.770;9.154;2023-08-12T00:41:40;27.40;;;5.17;;
2023;SDS011;1016;48.770;9.154;2023-08-12T00:44:06;30.07;;;5.30;;
2023;SDS011;1016;48.770;9.154;2023-08-12T00:46:31;28.60;;;4.97;;
2023;SDS011;1016;48.770;9.154;2023-08-12T00:48:57;29.23;;;5.70;;
2023;SDS011;1016;48.770;9.154;2023-08-12T00:51:23;28.10;;;5.30;;
2023;SDS011;1016;48.770;9.154;2023-08-12T00:53:49;27.43;;;4.53;;
2023;SDS011;1016;48.770;9.154;2023-08-12T00:56:16;27.73;;;4.80;;
2023;SDS011;1016;48.770;9.154;2023-08-12T00:58:42;28.20;;;4.67;;
2023;SDS011;1016;48.770;9.154;2023-08-12T01:01:08;29.07;;;5.20;;
2023;SDS011;1016;48.770;9.154;2023-08-12T01:03:35;28.27;;;5.60;;
2023;SDS011;1016;48.770;9.154;2023-08-12T01:06:01;30.23;;;5.30;;
2023;SDS011;1016;48.770;9.154;2023-08-12T01:08:28;28.60;;;5.40;;
2023;SDS011;1016;48.770;9.154;2023-08-12T01:10:58;26.90;;;5.20;;
2023;SDS011;1016;48.770;9.154;2023-08-12T01:13:43;28.40;;;5.77;;
2023;SDS011;1016;48.770;9.154;2023-08-12T01:16:20;27.40;;;5.57;;
2023;SDS011;1016;48.770;9.154;2023-08-12T01:18:47;28.30;;;5.60;;
2023;SDS011;1016;48.770;9.154;2023-08-12T01:21:15;27.90;;;5.40;;
2023;SDS011;1016;48.770;9.154;2023-08-12T01:23:42;30.43;;;5.50;;
2023;SDS011;1016;48.770;9.154;2023-08-12T01:26:07;28.53;;;5.47;;
2023;SDS011;1016;48.770;9.154;2023-08-12T01:28:33;28.60;;;5.50;;
2023;SDS011;1016;48.770;9.154;2023-08-12T01:34:07;26.87;;;5.30;;
2023;SDS011;1016;48.770;9.154;2023-08-12T01:36:41;27.97;;;5.60;;
2023;SDS011;1016;48.770;9.154;2023-08-12T01:39:11;27.80;;;4.90;;
2023;SDS011;1016;48.770;9.154;2023-08-12T01:41:37;28.37;;;5.30;;
2023;SDS011;1016;48.770;9.154;2023-08-12T01:44:03;28.47;;;5.50;;
2023;SDS011;1016;48.770;9.154;2023-08-12T01:46:29;27.70;;;5.47;;
2023;SDS011;1016;48.770;9.154;2023-08-12T01:48:56;28.53;;;5.50;;
2023;SDS011;1016;48.770;9.154;2023-08-12T01:51:21;30.80;;;4.83;;
2023;SDS011;1016;48.770;9.154;2023-08-12T01:53:47;28.93;;;5.53;;
2023;SDS011;1016;48.770;9.154;2023-08-12T01:56:12;28.57;;;5.53;;
2023;SDS011;1016;48.770;9.154;2023-08-12T01:58:38;28.83;;;5.53;;
2023;SDS011;1016;48.770;9.154;2023-08-12T02:01:03;27.17;;;5.10;;
2023;SDS011;1016;48.770;9.154;2023-08-12T02:03:29;30.37;;;5.43;;
2023;SDS011;1016;48.770;9.154;2023-08-12T02:05:54;27.73;;;5.33;;
2023;SDS011;1016;48.770;9.154;2023-08-12T02:08:20;27.73;;;5.50;;
2023;SDS011;1016;48.770;9.154;2023-08-12T02:10:45;28.40;;;5.10;;
2023;SDS011;1016;48.770;9.154;2023-08-12T02:13:10;27.13;;;5.53;;
2023;SDS011;1016;48.770;9.154;2023-08-12T02:15:36;28.70;;;6.10;;
2023;SDS011;1016;48.770;9.154;2023-08-12T02:18:01;29.13;;;5.57;;
2023;SDS011;1016;48.770;9.154;2023-08-12T02:20:28;27.67;;;5.70;;
2023;SDS011;1016;48.770;9.154;2023-08-12T02:22:53;28.07;;;6.53;;
2023;SDS011;1016;48.770;9.154;2023-08-12T02:25:19;30.67;;;6.03;;
2023;SDS011;1016;48.770;9.154;2023-08-12T02:27:44;28.90;;;5.63;;
2023;SDS011;1016;48.770;9.154;2023-08-12T02:30:10;28.87;;;5.73;;
2023;SDS011;1016;48.770;9.154;2023-08-12T02:32:36;30.37;;;5.67;;
2023;SDS011;1016;48.770;9.154;2023-08-12T02:35:01;28.00;;;5.70;;
2023;SDS011;1016;48.770;9.154;2023-08-12T02:37:27;27.90;;;4.80;;
2023;SDS011;1016;48.770;9.154;2023-08-12T02:39:52;28.37;;;5.63;;
2023;SDS011;1016;48.770;9.154;2023-08-12T02:42:18;28.10;;;5.30;;
2023;SDS011;1016;48.770;9.154;2023-08-12T02:44:43;28.67;;;6.40;;
2023;SDS011;1016;48.770;9.154;2023-08-12T02:47:09;28.67;;;5.57;;
2023;SDS011;1016;48.770;9.154;2023-08-12T02:49:34;30.30;;;5.83;;
2023;SDS011;1016;48.770;9.154;2023-08-12T02:52:00;27.57;;;5.27;;
2023;SDS011;1016;48.770;9.154;2023-08-12T02:54:25;28.00;;;5.90;;
2023;SDS011;1016;48.770;9.154;2023-08-12T02:56:51;28.00;;;5.70;;
2023;SDS011;1016;48.770;9.154;2023-08-12T02:59:16;27.67;;;5.40;;
2023;SDS011;1016;48.770;9.154;2023-08-12T03:01:42;32.50;;;6.30;;
2023;SDS011;1016;48.770;9.154;2023-08-12T03:04:07;27.77;;;5.30;;
2023;SDS011;1016;48.770;9.154;2023-08-12T03:06:33;29.07;;;5.43;;
2023;SDS011;1016;48.770;9.154;2023-08-12T03:08:58;27.97;;;5.87;;
2023;SDS011;1016;48.770;9.154;2023-08-12T03:11:24;27.70;;;6.00;;
2023;SDS011;1016;48.770;9.154;2023-08-12T03:13:49;30.30;;;5.87;;
2023;SDS011;1016;48.770;9.154;2023-08-12T03:16:15;27.90;;;6.03;;
2023;SDS011;1016;48.770;9.154;2023-08-12T03:18:40;28.70;;;5.97;;
2023;SDS011;1016;48.770;9.154;2023-08-12T03:21:07;28.27;;;5.83;;
2023;SDS011;1016;48.770;9.154;2023-08-12T03:23:33;28.63;;;5.80;;
2023;SDS011;1016;48.770;9.154;2023-08-12T03:25:59;27.57;;;5.00;;
2023;SDS011;1016;48.770;9.154;2023-08-12T03:28:25;30.50;;;5.83;;
2023;SDS011;1016;48.770;9.154;2023-08-12T03:30:51;29.03;;;5.90;;
2023;SDS011;1016;48.770;9.154;2023-08-12T03:33:17;28.67;;;5.70;;
2023;SDS011;1016;48.770;9.154;2023-08-12T03:35:46;29.17;;;5.50;;
2023;SDS011;1016;48.770;9.154;2023-08-12T03:38:13;27.77;;;5.03;;
2023;SDS011;1016;48.770;9.154;2023-08-12T03:40:39;28.73;;;5.70;;
2023;SDS011;1016;48.770;9.154;2023-08-12T03:43:05;28.40;;;5.93;;
2023;SDS011;1016;48.770;9.154;2023-08-12T03:45:30;27.80;;;5.50;;
2023;SDS011;1016;48.770;9.154;2023-08-12T03:47:56;27.77;;;5.97;;
2023;SDS011;1016;48.770;9.154;2023-08-12T03:50:21;27.33;;;5.13;;
2023;SDS011;1016;48.770;9.154;2023-08-12T03:52:47;27.40;;;5.07;;
2023;SDS011;1016;48.770;9.154;2023-08-12T03:55:12;27.93;;;5.67;;
2023;SDS011;1016;48.770;9.154;2023-08-12T03:57:38;28.00;;;5.40;;
2023;SDS011;1016;48.770;9.154;2023-08-12T04:00:04;27.80;;;5.10;;
2023;SDS011;1016;48.770;9.154;2023-08-12T04:02:32;28.20;;;5.13;;
2023;SDS011;1016;48.770;9.154;2023-08-12T04:04:57;26.77;;;4.93;;
2023;SDS011;1016;48.770;9.154;2023-08-12T04:07:23;27.97;;;5.90;;
2023;SDS011;1016;48.770;9.154;2023-08-12T04:09:49;28.33;;;5.10;;
2023;SDS011;1016;48.770;9.154;2023-08-12T04:12:14;30.57;;;5.33;;
2023;SDS011;1016;48.770;9.154;2023-08-12T04:14:40;27.90;;;5.30;;
2023;SDS011;1016;48.770;9.154;2023-08-12T04:17:05;29.07;;;5.27;;
2023;SDS011;1016;48.770;9.154;2023-08-12T04:19:31;30.43;;;5.43;;
2023;SDS011;1016;48.770;9.154;2023-08-12T04:21:56;28.50;;;5.30;;
2023;SDS011;1016;48.770;9.154;2023-08-12T04:24:22;27.70;;;5.57;;
2023;SDS011;1016;48.770;9.154;2023-08-12T04:26:47;30.10;;;5.40;;
2023;SDS011;1016;48.770;9.154;2023-08-12T04:29:13;27.30;;;4.67;;
2023;SDS011;1016;48.770;9.154;2023-08-12T04:31:40;28.23;;;5.00;;
2023;SDS011;1016;48.770;9.154;2023-08-12T04:34:05;27.83;;;5.50;;
2023;SDS011;1016;48.770;9.154;2023-08-12T04:36:31;30.50;;;5.30;;
2023;SDS011;1016;48.770;9.154;2023-08-12T04:38:56;27.80;;;5.50;;
2023;SDS011;1016;48.770;9.154;2023-08-12T04:41:22;27.67;;;5.03;;
2023;SDS011;1016;48.770;9.154;2023-08-12T04:43:49;28.10;;;5.10;;
2023;SDS011;1016;48.770;9.154;2023-08-12T04:46:14;28.30;;;5.10;;
2023;SDS011;1016;48.770;9.154;2023-08-12T04:48:40;27.83;;;5.87;;
2023;SDS011;1016;48.770;9.154;2023-08-12T04:51:05;28.00;;;5.00;;
2023;SDS011;1016;48.770;9.154;2023-08-12T04:53:32;27.50;;;5.10;;
2023;SDS011;1016;48.770;9.154;2023-08-12T04:55:57;27.27;;;4.87;;
2023;SDS011;1016;48.770;9.154;2023-08-12T04:58:23;27.17;;;5.10;;
2023;SDS011;1016;48.770;9.154;2023-08-12T05:00:49;28.30;;;5.00;;
2023;SDS011;1016;48.770;9.154;2023-08-12T05:03:15;29.93;;;5.90;;
2023;SDS011;1016;48.770;9.154;2023-08-12T05:05:41;27.70;;;5.17;;
2023;SDS011;1016;48.770;9.154;2023-08-12T05:08:07;27.40;;;5.27;;
2023;SDS011;1016;48.770;9.154;2023-08-12T05:10:32;27.60;;;5.03;;
2023;SDS011;1016;48.770;9.154;2023-08-12T05:12:58;30.10;;;5.63;;
2023;SDS011;1016;48.770;9.154;2023-08-12T05:15:23;28.63;;;4.93;;
2023;SDS011;1016;48.770;9.154;2023-08-12T05:17:49;28.20;;;5.40;;
2023;SDS011;1016;48.770;9.154;2023-08-12T05:20:14;28.43;;;5.90;;
2023;SDS011;1016;48.770;9.154;2023-08-12T05:22:40;27.80;;;5.43;;
2023;SDS011;1016;48.770;9.154;2023-08-12T05:25:05;27.90;;;5.27;;
2023;SDS011;1016;48.770;9.154;2023-08-12T05:27:31;28.60;;;4.83;;
2023;SDS011;1016;48.770;9.154;2023-08-12T05:29:56;26.90;;;4.70;;
2023;SDS011;1016;48.770;9.154;2023-08-12T05:32:22;27.47;;;5.17;;
2023;SDS011;1016;48.770;9.154;2023-08-12T05:34:49;28.20;;;5.50;;
2023;SDS011;1016;48.770;9.154;2023-08-12T05:37:17;27.87;;;5.10;;
2023;SDS011;1016;48.770;9.154;2023-08-12T05:39:42;29.43;;;5.33;;
2023;SDS011;1016;48.770;9.154;2023-08-12T05:42:08;27.77;;;5.60;;
2023;SDS011;1016;48.770;9.154;2023-08-12T05:44:33;28.20;;;5.00;;
2023;SDS011;1016;48.770;9.154;2023-08-12T05:46:59;27.67;;;5.10;;
2023;SDS011;1016;48.770;9.154;2023-08-12T05:49:24;27.93;;;5.97;;
2023;SDS011;1016;48.770;9.154;2023-08-12T05:51:50;27.23;;;5.00;;
2023;SDS011;1016;48.770;9.154;2023-08-12T05:54:15;28.20;;;5.10;;
2023;SDS011;1016;48.770;9.154;2023-08-12T05:56:41;27.80;;;5.37;;
2023;SDS011;1016;48.770;9.154;2023-08-12T05:59:06;28.00;;;5.40;;
2023;SDS011;1016;48.770;9.154;2023-08-12T06:01:32;28.60;;;5.30;;
2023;SDS011;1016;48.770;9.154;2023-08-12T06:03:57;27.90;;;5.17;;
2023;SDS011;1016;48.770;9.154;2023-08-12T06:06:23;27.70;;;5.57;;
2023;SDS011;1016;48.770;9.154;2023-08-12T06:08:48;27.77;;;5.40;;
2023;SDS011;1016;48.770;9.154;2023-08-12T06:11:14;27.70;;;5.57;;
2023;SDS011;1016;48.770;9.154;2023-08-12T06:13:39;29.57;;;5.80;;
2023;SDS011;1016;48.770;9.154;2023-08-12T06:16:05;28.17;;;6.00;;
2023;SDS011;1016;48.770;9.154;2023-08-12T06:18:30;28.07;;;5.20;;
2023;SDS011;1016;48.770;9.154;2023-08-12T06:20:56;28.20;;;5.20;;
2023;SDS011;1016;48.770;9.154;2023-08-12T06:23:21;28.87;;;5.80;;
2023;SDS011;1016;48.770;9.154;2023-08-12T06:25:47;27.80;;;5.73;;
2023;SDS011;1016;48.770;9.154;2023-08-12T06:28:12;29.20;;;6.23;;
2023;SDS011;1016;48.770;9.154;2023-08-12T06:30:37;27.83;;;5.30;;
2023;SDS011;1016;48.770;9.154;2023-08-12T06:33:03;29.00;;;5.40;;
2023;SDS011;1016;48.770;9.154;2023-08-12T06:35:29;27.87;;;5.77;;
2023;SDS011;1016;48.770;9.154;2023-08-12T06:37:54;29.03;;;5.50;;
2023;SDS011;1016;48.770;9.154;2023-08-12T06:40:20;27.47;;;5.57;;
2023;SDS011;1016;48.770;9.154;2023-08-12T06:42:45;27.20;;;5.30;;
2023;SDS011;1016;48.770;9.154;2023-08-12T06:45:11;28.37;;;5.60;;
2023;SDS011;1016;48.770;9.154;2023-08-12T06:47:36;27.70;;;5.60;;
2023;SDS011;1016;48.770;9.154;2023-08-12T06:50:02;27.87;;;5.80;;
2023;SDS011;1016;48.770;9.154;2023-08-12T06:52:27;27.87;;;5.27;;
2023;SDS011;1016;48.770;9.154;2023-08-12T06:54:53;30.87;;;6.60;;
2023;SDS011;1016;48.770;9.154;2023-08-12T06:57:18;27.50;;;5.70;;
2023;SDS011;1016;48.770;9.154;2023-08-12T06:59:44;27.80;;;6.37;;
2023;SDS011;1016;48.770;9.154;2023-08-12T07:02:10;27.53;;;5.40;;
2023;SDS011;1016;48.770;9.154;2023-08-12T07:04:35;28.00;;;5.40;;
2023;SDS011;1016;48.770;9.154;2023-08-12T07:07:01;27.87;;;5.67;;
2023;SDS011;1016;48.770;9.154;2023-08-12T07:09:26;27.67;;;5.20;;
2023;SDS011;1016;48.770;9.154;2023-08-12T07:11:52;27.50;;;5.60;;
2023;SDS011;1016;48.770;9.154;2023-08-12T07:14:17;27.50;;;5.33;;
2023;SDS011;1016;48.770;9.154;2023-08-12T07:16:43;27.73;;;6.27;;
2023;SDS011;1016;48.770;9.154;2023-08-12T07:19:08;27.00;;;5.23;;
2023;SDS011;1016;48.770;9.154;2023-08-12T07:21:34;27.67;;;5.80;;
2023;SDS011;1016;48.770;9.154;2023-08-12T07:23:59;27.83;;;5.43;;
2023;SDS011;1016;48.770;9.154;2023-08-12T07:26:25;31.20;;;5.57;;
2023;SDS011;1016;48.770;9.154;2023-08-12T07:28:50;28.03;;;6.20;;
2023;SDS011;1016;48.770;9.154;2023-08-12T07:31:16;26.90;;;5.20;;
2023;SDS011;1016;48.770;9.154;2023-08-12T07:33:42;28.40;;;5.03;;
2023;SDS011;1016;48.770;9.154;2023-08-12T07:36:08;28.90;;;5.50;;
2023;SDS011;1016;48.770;9.154;2023-08-12T07:38:33;28.23;;;6.30;;
2023;SDS011;1016;48.770;9.154;2023-08-12T07:40:59;27.20;;;5.00;;
2023;SDS011;1016;48.770;9.154;2023-08-12T07:43:25;29.80;;;5.77;;
2023;SDS011;1016;48.770;9.154;2023-08-12T07:45:51;27.70;;;6.10;;
2023;SDS011;1016;48.770;9.154;2023-08-12T07:48:18;29.33;;;5.43;;
2023;SDS011;1016;48.770;9.154;2023-08-12T07:50:44;28.70;;;6.07;;
2023;SDS011;1016;48.770;9.154;2023-08-12T07:53:10;27.77;;;5.17;;
2023;SDS011;1016;48.770;9.154;2023-08-12T07:55:35;27.67;;;5.80;;
2023;SDS011;1016;48.770;9.154;2023-08-12T07:58:01;27.70;;;5.83;;
2023;SDS011;1016;48.770;9.154;2023-08-12T08:00:26;28.00;;;5.40;;
2023;SDS011;1016;48.770;9.154;2023-08-12T08:02:52;28.10;;;5.47;;
2023;SDS011;1016;48.770;9.154;2023-08-12T08:05:17;27.10;;;5.30;;
2023;SDS011;1016;48.770;9.154;2023-08-12T08:07:43;27.97;;;5.97;;
2023;SDS011;1016;48.770;9.154;2023-08-12T08:10:08;28.07;;;5.70;;
2023;SDS011;1016;48.770;9.154;2023-08-12T08:12:35;27.47;;;5.67;;
2023;SDS011;1016;48.770;9.154;2023-08-12T08:15:00;27.10;;;5.30;;
2023;SDS011;1016;48.770;9.154;2023-08-12T08:17:28;29.27;;;6.23;;
2023;SDS011;1016;48.770;9.154;2023-08-12T08:19:53;27.50;;;5.37;;
2023;SDS011;1016;48.770;9.154;2023-08-12T08:22:19;27.67;;;6.00;;
2023;SDS011;1016;48.770;9.154;2023-08-12T08:24:44;27.57;;;5.70;;
2023;SDS011;1016;48.770;9.154;2023-08-12T08:27:10;27.40;;;5.00;;
2023;SDS011;1016;48.770;9.154;2023-08-12T08:29:35;28.33;;;5.60;;
2023;SDS011;1016;48.770;9.154;2023-08-12T08:32:01;28.37;;;6.20;;
2023;SDS011;1016;48.770;9.154;2023-08-12T08:34:26;27.60;;;5.10;;
2023;SDS011;1016;48.770;9.154;2023-08-12T08:36:52;29.33;;;5.80;;
2023;SDS011;1016;48.770;9.154;2023-08-12T08:39:17;28.77;;;6.23;;
2023;SDS011;1016;48.770;9.154;2023-08-12T08:41:43;29.70;;;5.60;;
2023;SDS011;1016;48.770;9.154;2023-08-12T08:44:12;27.83;;;5.40;;
2023;SDS011;1016;48.770;9.154;2023-08-12T08:46:39;26.60;;;4.70;;
2023;SDS011;1016;48.770;9.154;2023-08-12T08:49:06;27.10;;;5.00;;
2023;SDS011;1016;48.770;9.154;2023-08-12T08:51:34;27.63;;;5.20;;
2023;SDS011;1016;48.770;9.154;2023-08-12T08:54:01;27.40;;;4.80;;
2023;SDS011;1016;48.770;9.154;2023-08-12T08:56:29;27.73;;;5.53;;
2023;SDS011;1016;48.770;9.154;2023-08-12T08:58:55;27.50;;;5.17;;
2023;SDS011;1016;48.770;9.154;2023-08-12T09:01:21;29.20;;;5.47;;
2023;SDS011;1016;48.770;9.154;2023-08-12T09:03:47;26.97;;;4.67;;
2023;SDS011;1016;48.770;9.154;2023-08-12T09:06:17;29.70;;;5.70;;
2023;SDS011;1016;48.770;9.154;2023-08-12T09:08:45;27.50;;;5.50;;
2023;SDS011;1016;48.770;9.154;2023-08-12T09:11:13;27.80;;;5.20;;
2023;SDS011;1016;48.770;9.154;2023-08-12T09:13:39;28.63;;;5.53;;
2023;SDS011;1016;48.770;9.154;2023-08-12T09:16:05;27.50;;;5.10;;
2023;SDS011;1016;48.770;9.154;2023-08-12T09:18:30;29.00;;;6.50;;
2023;SDS011;1016;48.770;9.154;2023-08-12T09:20:56;28.20;;;6.10;;
2023;SDS011;1016;48.770;9.154;2023-08-12T09:23:22;29.27;;;6.10;;
2023;SDS011;1016;48.770;9.154;2023-08-12T09:25:48;29.13;;;6.17;;
2023;SDS011;1016;48.770;9.154;2023-08-12T09:28:13;28.10;;;5.50;;
2023;SDS011;1016;48.770;9.154;2023-08-12T09:30:39;29.90;;;5.87;;
2023;SDS011;1016;48.770;9.154;2023-08-12T09:33:06;28.17;;;5.87;;
2023;SDS011;1016;48.770;9.154;2023-08-12T09:35:36;28.97;;;5.40;;
2023;SDS011;1016;48.770;9.154;2023-08-12T09:38:04;28.00;;;5.23;;
2023;SDS011;1016;48.770;9.154;2023-08-12T09:40:31;29.30;;;5.40;;
2023;SDS011;1016;48.770;9.154;2023-08-12T09:42:58;28.10;;;5.33;;
2023;SDS011;1016;48.770;9.154;2023-08-12T09:45:24;27.30;;;5.00;;
2023;SDS011;1016;48.770;9.154;2023-08-12T09:47:50;26.73;;;5.10;;
2023;SDS011;1016;48.770;9.154;2023-08-12T09:50:16;29.63;;;5.17;;
2023;SDS011;1016;48.770;9.154;2023-08-12T09:52:41;31.70;;;5.17;;
2023;SDS011;1016;48.770;9.154;2023-08-12T09:55:08;29.10;;;4.13;;
2023;SDS011;1016;48.770;9.154;2023-08-12T09:57:36;26.67;;;3.93;;
2023;SDS011;1016;48.770;9.154;2023-08-12T10:00:06;26.37;;;4.03;;
2023;SDS011;1016;48.770;9.154;2023-08-12T10:02:38;27.00;;;4.23;;
2023;SDS011;1016;48.770;9.154;2023-08-12T10:05:05;27.10;;;3.80;;
2023;SDS011;1016;48.770;9.154;2023-08-12T10:07:35;29.40;;;4.60;;
2023;SDS011;1016;48.770;9.154;2023-08-12T10:10:01;30.20;;;4.33;;
2023;SDS011;1016;48.770;9.154;2023-08-12T10:12:27;27.80;;;4.47;;
2023;SDS011;1016;48.770;9.154;2023-08-12T10:14:53;26.90;;;4.00;;
2023;SDS011;1016;48.770;9.154;2023-08-12T10:17:19;26.67;;;3.80;;
2023;SDS011;1016;48.770;9.154;2023-08-12T10:19:46;27.00;;;4.50;;
2023;SDS011;1016;48.770;9.154;2023-08-12T10:22:12;26.93;;;4.40;;
2023;SDS011;1016;48.770;9.154;2023-08-12T10:24:39;26.30;;;4.33;;
2023;SDS011;1016;48.770;9.154;2023-08-12T10:27:07;27.20;;;4.00;;
2023;SDS011;1016;48.770;9.154;2023-08-12T10:29:34;28.17;;;4.77;;
2023;SDS011;1016;48.770;9.154;2023-08-12T10:32:00;28.30;;;4.30;;
2023;SDS011;1016;48.770;9.154;2023-08-12T10:34:26;26.47;;;4.00;;
2023;SDS011;1016;48.770;9.154;2023-08-12T10:37:00;26.70;;;4.67;;
2023;SDS011;1016;48.770;9.154;2023-08-12T10:39:27;28.10;;;5.30;;
2023;SDS011;1016;48.770;9.154;2023-08-12T10:41:54;28.10;;;5.77;;
2023;SDS011;1016;48.770;9.154;2023-08-12T10:44:21;26.90;;;4.70;;
2023;SDS011;1016;48.770;9.154;2023-08-12T10:46:50;26.40;;;4.70;;
2023;SDS011;1016;48.770;9.154;2023-08-12T10:49:18;26.80;;;5.03;;
2023;SDS011;1016;48.770;9.154;2023-08-12T10:51:46;27.00;;;4.97;;
2023;SDS011;1016;48.770;9.154;2023-08-12T10:54:16;27.23;;;4.93;;
2023;SDS011;1016;48.770;9.154;2023-08-12T11:02:21;29.13;;;4.70;;
2023;SDS011;1016;48.770;9.154;2023-08-12T11:04:56;27.20;;;4.47;;
2023;SDS011;1016;48.770;9.154;2023-08-12T11:10:09;27.80;;;5.60;;
2023;SDS011;1016;48.770;9.154;2023-08-12T11:12:37;27.70;;;5.57;;
2023;SDS011;1016;48.770;9.154;2023-08-12T11:15:04;26.23;;;4.30;;
2023;SDS011;1016;48.770;9.154;2023-08-12T11:17:34;27.40;;;4.40;;
2023;SDS011;1016;48.770;9.154;2023-08-12T11:20:00;27.10;;;4.00;;
2023;SDS011;1016;48.770;9.154;2023-08-12T11:22:29;27.10;;;4.30;;
2023;SDS011;1016;48.770;9.154;2023-08-12T11:24:55;27.50;;;4.00;;
2023;SDS011;1016;48.770;9.154;2023-08-12T11:27:21;26.77;;;4.23;;
2023;SDS011;1016;48.770;9.154;2023-08-12T11:29:48;26.97;;;3.77;;
2023;SDS011;1016;48.770;9.154;2023-08-12T11:32:15;30.00;;;4.17;;
2023;SDS011;1016;48.770;9.154;2023-08-12T11:34:41;26.30;;;3.70;;
2023;SDS011;1016;48.770;9.154;2023-08-12T11:37:06;26.37;;;3.50;;
2023;SDS011;1016;48.770;9.154;2023-08-12T11:39:32;26.97;;;4.00;;
2023;SDS011;1016;48.770;9.154;2023-08-12T11:41:58;27.20;;;3.93;;
2023;SDS011;1016;48.770;9.154;2023-08-12T11:44:24;26.73;;;4.00;;
2023;SDS011;1016;48.770;9.154;2023-08-12T11:46:49;27.70;;;4.20;;
2023;SDS011;1016;48.770;9.154;2023-08-12T11:49:15;29.40;;;4.47;;
2023;SDS011;1016;48.770;9.154;2023-08-12T11:51:41;27.87;;;4.30;;
2023;SDS011;1016;48.770;9.154;2023-08-12T11:54:08;28.40;;;4.57;;
2023;SDS011;1016;48.770;9.154;2023-08-12T11:56:35;28.67;;;4.50;;
2023;SDS011;1016;48.770;9.154;2023-08-12T11:59:00;28.67;;;4.67;;
2023;SDS011;1016;48.770;9.154;2023-08-12T12:01:26;27.43;;;3.67;;
2023;SDS011;1016;48.770;9.154;2023-08-12T12:03:53;28.27;;;4.40;;
2023;SDS011;1016;48.770;9.154;2023-08-12T12:06:29;27.47;;;3.83;;
2023;SDS011;1016;48.770;9.154;2023-08-12T12:09:02;27.97;;;4.47;;
2023;SDS011;1016;48.770;9.154;2023-08-12T12:11:31;30.13;;;5.63;;
2023;SDS011;1016;48.770;9.154;2023-08-12T12:14:00;28.33;;;4.83;;
2023;SDS011;1016;48.770;9.154;2023-08-12T12:16:42;28.40;;;5.23;;
2023;SDS011;1016;48.770;9.154;2023-08-12T12:19:22;28.43;;;5.13;;
2023;SDS011;1016;48.770;9.154;2023-08-12T12:21:49;29.47;;;5.60;;
2023;SDS011;1016;48.770;9.154;2023-08-12T12:24:16;30.80;;;6.13;;
2023;SDS011;1016;48.770;9.154;2023-08-12T12:26:45;30.43;;;6.70;;
2023;SDS011;1016;48.770;9.154;2023-08-12T12:29:11;29.57;;;6.20;;
2023;SDS011;1016;48.770;9.154;2023-08-12T12:31:38;32.00;;;6.17;;
2023;SDS011;1016;48.770;9.154;2023-08-12T12:34:04;28.40;;;5.87;;
2023;SDS011;1016;48.770;9.154;2023-08-12T12:36:31;28.17;;;5.53;;
2023;SDS011;1016;48.770;9.154;2023-08-12T12:39:00;27.30;;;5.20;;
2023;SDS011;1016;48.770;9.154;2023-08-12T12:41:26;27.67;;;5.20;;
2023;SDS011;1016;48.770;9.154;2023-08-12T12:43:52;27.37;;;5.30;;
2023;SDS011;1016;48.770;9.154;2023-08-12T12:46:17;28.57;;;5.70;;
2023;SDS011;1016;48.770;9.154;2023-08-12T12:48:43;26.90;;;5.60;;
2023;SDS011;1016;48.770;9.154;2023-08-12T12:51:10;30.07;;;5.60;;
2023;SDS011;1016;48.770;9.154;2023-08-12T12:53:36;30.40;;;5.70;;
2023;SDS011;1016;48.770;9.154;2023-08-12T12:56:01;28.07;;;5.30;;
2023;SDS011;1016;48.770;9.154;2023-08-12T12:58:30;28.83;;;5.70;;
2023;SDS011;1016;48.770;9.154;2023-08-12T13:01:02;27.30;;;5.50;;
2023;SDS011;1016;48.770;9.154;2023-08-12T13:03:29;29.73;;;6.50;;
2023;SDS011;1016;48.770;9.154;2023-08-12T13:05:55;27.50;;;6.07;;
2023;SDS011;1016;48.770;9.154;2023-08-12T13:08:20;28.50;;;6.27;;
2023;SDS011;1016;48.770;9.154;2023-08-12T13:10:46;28.13;;;6.37;;
2023;SDS011;1016;48.770;9.154;2023-08-12T13:13:15;26.60;;;6.50;;
2023;SDS011;1016;48.770;9.154;2023-08-12T13:15:41;27.10;;;6.27;;
2023;SDS011;1016;48.770;9.154;2023-08-12T13:18:07;26.87;;;6.13;;
2023;SDS011;1016;48.770;9.154;2023-08-12T13:20:33;28.10;;;6.37;;
2023;SDS011;1016;48.770;9.154;2023-08-12T13:22:59;27.50;;;6.30;;
2023;SDS011;1016;48.770;9.154;2023-08-12T13:25:25;27.43;;;7.00;;
2023;SDS011;1016;48.770;9.154;2023-08-12T13:27:50;29.00;;;6.90;;
2023;SDS011;1016;48.770;9.154;2023-08-12T13:30:16;30.70;;;7.40;;
2023;SDS011;1016;48.770;9.154;2023-08-12T13:32:41;27.53;;;6.33;;
2023;SDS011;1016;48.770;9.154;2023-08-12T13:35:07;28.20;;;6.40;;
2023;SDS011;1016;48.770;9.154;2023-08-12T13:37:32;27.60;;;7.00;;
2023;SDS011;1016;48.770;9.154;2023-08-12T13:39:58;28.83;;;6.60;;
2023;SDS011;1016;48.770;9.154;2023-08-12T13:42:23;26.93;;;7.03;;
2023;SDS011;1016;48.770;9.154;2023-08-12T13:44:49;27.90;;;6.70;;
2023;SDS011;1016;48.770;9.154;2023-08-12T13:47:14;27.83;;;6.33;;
2023;SDS011;1016;48.770;9.154;2023-08-12T13:49:40;27.43;;;6.60;;
2023;SDS011;1016;48.770;9.154;2023-08-12T13:52:05;26.97;;;6.07;;
2023;SDS011;1016;48.770;9.154;2023-08-12T13:54:31;28.07;;;6.60;;
2023;SDS011;1016;48.770;9.154;2023-08-12T13:56:56;26.20;;;6.00;;
2023;SDS011;1016;48.770;9.154;2023-08-12T13:59:23;26.67;;;5.90;;
2023;SDS011;1016;48.770;9.154;2023-08-12T14:01:49;26.37;;;6.30;;
2023;SDS011;1016;48.770;9.154;2023-08-12T14:04:15;28.20;;;6.30;;
2023;SDS011;1016;48.770;9.154;2023-08-12T14:06:40;27.80;;;6.50;;
2023;SDS011;1016;48.770;9.154;2023-08-12T14:09:06;27.83;;;6.10;;
2023;SDS011;1016;48.770;9.154;2023-08-12T14:11:33;26.07;;;5.50;;
2023;SDS011;1016;48.770;9.154;2023-08-12T14:13:58;26.90;;;5.90;;
2023;SDS011;1016;48.770;9.154;2023-08-12T14:16:24;26.57;;;5.20;;
2023;SDS011;1016;48.770;9.154;2023-08-12T14:18:49;26.30;;;5.20;;
2023;SDS011;1016;48.770;9.154;2023-08-12T14:21:15;27.90;;;5.67;;
2023;SDS011;1016;48.770;9.154;2023-08-12T14:23:40;26.73;;;5.53;;
2023;SDS011;1016;48.770;9.154;2023-08-12T14:26:06;26.53;;;5.60;;
2023;SDS011;1016;48.770;9.154;2023-08-12T14:28:31;26.23;;;5.30;;
2023;SDS011;1016;48.770;9.154;2023-08-12T14:30:57;25.60;;;4.80;;
2023;SDS011;1016;48.770;9.154;2023-08-12T14:33:22;25.90;;;5.00;;
2023;SDS011;1016;48.770;9.154;2023-08-12T14:35:50;25.70;;;4.60;;
2023;SDS011;1016;48.770;9.154;2023-08-12T14:38:16;25.47;;;4.47;;
2023;SDS011;1016;48.770;9.154;2023-08-12T14:40:42;26.20;;;4.70;;
2023;SDS011;1016;48.770;9.154;2023-08-12T14:43:11;24.90;;;4.03;;
2023;SDS011;1016;48.770;9.154;2023-08-12T14:45:37;26.80;;;4.00;;
2023;SDS011;1016;48.770;9.154;2023-08-12T14:48:02;25.47;;;4.03;;
2023;SDS011;1016;48.770;9.154;2023-08-12T14:50:28;26.60;;;4.23;;
2023;SDS011;1016;48.770;9.154;2023-08-12T14:52:53;26.53;;;4.40;;
2023;SDS011;1016;48.770;9.154;2023-08-12T14:55:19;26.03;;;4.63;;
2023;SDS011;1016;48.770;9.154;2023-08-12T14:57:44;26.10;;;4.90;;
2023;SDS011;1016;48.770;9.154;2023-08-12T15:00:10;26.57;;;5.10;;
2023;SDS011;1016;48.770;9.154;2023-08-12T15:02:36;25.80;;;4.50;;
2023;SDS011;1016;48.770;9.154;2023-08-12T15:05:01;26.00;;;5.00;;